createdAt,value
2022-12-25T00:02:46.844Z,101889.94
2022-12-25T00:05:52.772Z,101896.69
2022-12-25T00:08:58.685Z,101893.44
2022-12-25T00:12:04.065Z,101889.03
2022-12-25T00:15:09.744Z,101898.28
2022-12-25T00:18:15.550Z,101900.56
2022-12-25T00:21:22.495Z,101892.56
2022-12-25T00:24:28.300Z,101888.41
2022-12-25T00:27:34.567Z,101884.34
2022-12-25T00:30:41.564Z,101882.47
2022-12-25T00:33:49.019Z,101888.69
2022-12-25T00:36:55.101Z,101875.97
2022-12-25T00:40:00.638Z,101886.34
2022-12-25T00:43:05.955Z,101881.16
2022-12-25T00:46:13.448Z,101878.47
2022-12-25T00:49:19.339Z,101873.63
2022-12-25T00:52:25.064Z,101876.00
2022-12-25T00:55:31.604Z,101874.72
2022-12-25T00:58:36.931Z,101875.16
2022-12-25T01:01:42.152Z,101865.56
2022-12-25T01:04:47.778Z,101869.31
2022-12-25T01:07:52.890Z,101864.56
2022-12-25T01:11:02.618Z,101869.75
2022-12-25T01:14:09.812Z,101872.34
2022-12-25T01:17:15.191Z,101879.59
2022-12-25T01:20:20.449Z,101874.91
2022-12-25T01:23:25.986Z,101880.31
2022-12-25T01:26:31.387Z,101894.47
2022-12-25T01:29:38.258Z,101894.56
2022-12-25T01:32:43.890Z,101899.09
2022-12-25T01:35:49.015Z,101907.31
2022-12-25T01:38:54.987Z,101916.59
2022-12-25T01:42:00.594Z,101919.66
2022-12-25T01:45:30.998Z,101920.31
2022-12-25T01:48:39.925Z,101916.06
2022-12-25T01:51:53.575Z,101918.34
2022-12-25T01:55:04.676Z,101912.94
2022-12-25T01:58:10.185Z,101911.34
2022-12-25T02:01:15.788Z,101905.25
2022-12-25T02:04:39.870Z,101901.94
2022-12-25T02:07:48.762Z,101891.81
2022-12-25T02:10:54.099Z,101894.91
2022-12-25T02:13:59.397Z,101898.59
2022-12-25T02:17:20.630Z,101901.25
2022-12-25T02:21:03.488Z,101904.56
2022-12-25T02:24:56.298Z,101908.16
2022-12-25T02:28:05.291Z,101908.16
2022-12-25T02:31:22.072Z,101906.22
2022-12-25T02:35:00.921Z,101915.47
2022-12-25T02:38:18.928Z,101914.16
2022-12-25T02:41:24.359Z,101923.75
2022-12-25T02:44:50.293Z,101921.16
2022-12-25T02:48:14.362Z,101912.56
2022-12-25T02:51:42.516Z,101920.31
2022-12-25T02:55:12.073Z,101917.34
2022-12-25T02:58:41.595Z,101922.72
2022-12-25T03:02:05.343Z,101920.81
2022-12-25T03:05:34.538Z,101912.63
2022-12-25T03:08:43.421Z,101911.84
2022-12-25T03:11:56.367Z,101916.28
2022-12-25T03:15:20.745Z,101915.84
2022-12-25T03:18:30.857Z,101915.50
2022-12-25T03:21:55.036Z,101912.91
2022-12-25T03:25:19.692Z,101914.84
2022-12-25T03:28:25.080Z,101911.59
2022-12-25T03:31:49.163Z,101909.25
2022-12-25T03:35:19.103Z,101914.16
2022-12-25T03:38:43.496Z,101911.78
2022-12-25T03:42:17.707Z,101909.91
2022-12-25T03:45:48.354Z,101907.31
2022-12-25T03:49:21.541Z,101910.47
2022-12-25T03:52:48.590Z,101897.75
2022-12-25T03:56:13.422Z,101901.88
2022-12-25T03:59:41.653Z,101903.91
2022-12-25T04:03:05.836Z,101908.72
2022-12-25T04:06:29.753Z,101909.50
2022-12-25T04:09:53.384Z,101917.00
2022-12-25T04:13:17.636Z,101912.06
2022-12-25T04:16:41.747Z,101918.47
2022-12-25T04:20:05.492Z,101921.94
2022-12-25T04:23:29.412Z,101923.28
2022-12-25T04:26:52.921Z,101929.44
2022-12-25T04:30:16.556Z,101925.97
2022-12-25T04:33:40.152Z,101918.88
2022-12-25T04:36:45.559Z,101924.63
2022-12-25T04:39:50.955Z,101918.19
2022-12-25T04:42:56.751Z,101930.47
2022-12-25T04:46:03.036Z,101936.59
2022-12-25T04:49:08.930Z,101939.56
2022-12-25T04:52:14.330Z,101933.13
2022-12-25T04:55:20.198Z,101939.22
2022-12-25T04:58:25.587Z,101942.56
2022-12-25T05:01:30.902Z,101946.16
2022-12-25T05:04:36.208Z,101953.28
2022-12-25T05:07:41.873Z,101960.91
2022-12-25T05:10:48.528Z,101963.53
2022-12-25T05:13:54.073Z,101960.22
2022-12-25T05:16:59.711Z,101967.84
2022-12-25T05:20:06.770Z,101966.19
2022-12-25T05:23:12.559Z,101951.97
2022-12-25T05:26:21.501Z,101957.75
2022-12-25T05:29:27.137Z,101949.81
2022-12-25T05:32:32.662Z,101942.22
2022-12-25T05:35:39.797Z,101952.13
2022-12-25T05:38:45.321Z,101951.28
2022-12-25T05:41:50.710Z,101960.22
2022-12-25T05:44:56.598Z,101963.38
2022-12-25T05:48:02.212Z,101964.34
2022-12-25T05:51:10.421Z,101953.94
2022-12-25T05:54:17.252Z,101954.59
2022-12-25T05:57:23.102Z,101961.88
2022-12-25T06:00:28.507Z,101959.22
2022-12-25T06:03:34.381Z,101967.16
2022-12-25T06:06:40.251Z,101963.13
2022-12-25T06:09:45.945Z,101972.41
2022-12-25T06:12:51.631Z,101962.63
2022-12-25T06:15:57.120Z,101966.59
2022-12-25T06:19:03.018Z,101974.69
2022-12-25T06:22:08.539Z,101970.94
2022-12-25T06:25:14.547Z,101975.72
2022-12-25T06:28:20.598Z,101974.53
2022-12-25T06:31:25.909Z,101984.44
2022-12-25T06:34:31.070Z,101976.69
2022-12-25T06:37:36.362Z,101987.38
2022-12-25T06:40:41.725Z,101988.34
2022-12-25T06:43:52.492Z,101988.66
2022-12-25T06:46:57.687Z,101991.97
2022-12-25T06:50:03.011Z,101997.09
2022-12-25T06:53:07.987Z,102003.22
2022-12-25T06:56:16.269Z,102006.00
2022-12-25T06:59:21.971Z,102007.00
2022-12-25T07:02:28.043Z,102010.16
2022-12-25T07:05:33.307Z,102006.00
2022-12-25T07:08:38.859Z,102008.81
2022-12-25T07:11:45.593Z,102011.25
2022-12-25T07:14:53.949Z,102012.25
2022-12-25T07:17:59.271Z,102010.56
2022-12-25T07:21:17.698Z,102014.19
2022-12-25T07:24:24.097Z,102018.81
2022-12-25T07:27:30.213Z,102023.22
2022-12-25T07:30:35.572Z,102040.81
2022-12-25T07:33:42.189Z,102036.41
2022-12-25T07:36:47.897Z,102034.56
2022-12-25T07:39:53.315Z,102036.94
2022-12-25T07:42:58.309Z,102037.66
2022-12-25T07:46:04.147Z,102042.47
2022-12-25T07:49:11.286Z,102053.91
2022-12-25T07:52:16.593Z,102051.91
2022-12-25T07:55:21.790Z,102064.63
2022-12-25T07:58:27.257Z,102061.91
2022-12-25T08:01:32.589Z,102063.53
2022-12-25T08:04:38.027Z,102062.09
2022-12-25T08:07:43.188Z,102073.06
2022-12-25T08:10:48.640Z,102074.50
2022-12-25T08:13:53.811Z,102081.09
2022-12-25T08:16:59.047Z,102083.09
2022-12-25T08:20:04.755Z,102080.16
2022-12-25T08:23:10.168Z,102082.31
2022-12-25T08:26:18.971Z,102087.16
2022-12-25T08:29:24.539Z,102087.84
2022-12-25T08:32:33.245Z,102087.97
2022-12-25T08:35:38.170Z,102095.69
2022-12-25T08:38:44.062Z,102095.22
2022-12-25T08:41:49.747Z,102096.22
2022-12-25T08:44:55.367Z,102106.13
2022-12-25T08:48:00.637Z,102112.38
2022-12-25T08:51:14.825Z,102117.69
2022-12-25T08:54:19.997Z,102115.56
2022-12-25T08:57:24.999Z,102121.88
2022-12-25T09:00:29.928Z,102129.75
2022-12-25T09:03:35.950Z,102127.59
2022-12-25T09:06:41.797Z,102130.44
2022-12-25T09:09:46.946Z,102133.03
2022-12-25T09:12:52.290Z,102142.50
2022-12-25T09:15:57.245Z,102139.19
2022-12-25T09:19:02.784Z,102126.69
2022-12-25T09:22:08.234Z,102142.22
2022-12-25T09:25:13.308Z,102137.31
2022-12-25T09:28:19.106Z,102145.81
2022-12-25T09:31:24.956Z,102138.41
2022-12-25T09:34:30.048Z,102138.09
2022-12-25T09:37:35.589Z,102143.34
2022-12-25T09:40:41.651Z,102148.03
2022-12-25T09:44:02.446Z,102141.25
2022-12-25T09:47:20.802Z,102135.19
2022-12-25T09:50:42.697Z,102138.56
2022-12-25T09:54:00.512Z,102132.44
2022-12-25T09:57:10.310Z,102140.78
2022-12-25T10:00:19.124Z,102143.34
2022-12-25T10:03:33.471Z,102143.97
2022-12-25T10:06:53.684Z,102140.50
2022-12-25T10:10:15.305Z,102145.28
2022-12-25T10:13:42.600Z,102136.94
2022-12-25T10:17:00.119Z,102143.06
2022-12-25T10:20:59.902Z,102140.88
2022-12-25T10:24:25.871Z,102146.91
2022-12-25T10:27:39.355Z,102154.63
2022-12-25T10:30:45.567Z,102146.06
2022-12-25T10:33:53.167Z,102134.13
2022-12-25T10:36:59.049Z,102142.53
2022-12-25T10:40:28.156Z,102141.31
2022-12-25T10:44:42.731Z,102142.09
2022-12-25T10:47:54.968Z,102140.09
2022-12-25T10:51:04.976Z,102140.19
2022-12-25T10:54:29.342Z,102141.31
2022-12-25T10:57:45.727Z,102126.44
2022-12-25T11:01:04.070Z,102129.38
2022-12-25T11:04:21.936Z,102123.50
2022-12-25T11:07:27.408Z,102128.91
2022-12-25T11:10:44.533Z,102126.56
2022-12-25T11:13:54.301Z,102114.66
2022-12-25T11:17:09.835Z,102106.66
2022-12-25T11:20:19.971Z,102100.22
2022-12-25T11:23:27.805Z,102094.59
2022-12-25T11:26:48.050Z,102098.56
2022-12-25T11:29:59.259Z,102105.03
2022-12-25T11:33:11.670Z,102099.53
2022-12-25T11:36:20.621Z,102087.81
2022-12-25T11:39:35.698Z,102084.13
2022-12-25T11:42:47.907Z,102077.19
2022-12-25T11:45:59.881Z,102083.56
2022-12-25T11:49:14.546Z,102089.34
2022-12-25T11:52:22.141Z,102085.47
2022-12-25T11:55:43.089Z,102083.66
2022-12-25T11:58:53.186Z,102085.72
2022-12-25T12:02:12.173Z,102075.88
2022-12-25T12:05:26.415Z,102071.56
2022-12-25T12:08:33.285Z,102070.81
2022-12-25T12:11:48.079Z,102068.34
2022-12-25T12:15:13.239Z,102067.31
2022-12-25T12:18:27.873Z,102064.09
2022-12-25T12:21:33.122Z,102058.59
2022-12-25T12:24:45.008Z,102055.91
2022-12-25T12:28:04.925Z,102055.72
2022-12-25T12:31:11.144Z,102058.63
2022-12-25T12:34:31.611Z,102057.16
2022-12-25T12:37:40.801Z,102045.25
2022-12-25T12:40:56.573Z,102053.28
2022-12-25T12:44:05.199Z,102049.16
2022-12-25T12:47:29.830Z,102052.03
2022-12-25T12:50:41.253Z,102052.06
2022-12-25T12:53:46.854Z,102053.28
2022-12-25T12:57:07.721Z,102065.81
2022-12-25T13:00:18.884Z,102060.25
2022-12-25T13:03:33.162Z,102062.72
2022-12-25T13:06:47.809Z,102052.25
2022-12-25T13:10:23.191Z,102053.69
2022-12-25T13:13:45.787Z,102058.00
2022-12-25T13:16:54.524Z,102055.13
2022-12-25T13:20:01.570Z,102060.25
2022-12-25T13:23:28.103Z,102054.06
2022-12-25T13:26:33.846Z,102059.66
2022-12-25T13:29:39.466Z,102052.88
2022-12-25T13:32:46.258Z,102060.03
2022-12-25T13:35:52.003Z,102064.56
2022-12-25T13:38:59.387Z,102070.91
2022-12-25T13:42:09.851Z,102069.88
2022-12-25T13:45:26.210Z,102067.22
2022-12-25T13:48:31.733Z,102072.94
2022-12-25T13:51:36.952Z,102072.38
2022-12-25T13:54:55.858Z,102078.50
2022-12-25T13:58:06.391Z,102083.22
2022-12-25T14:01:17.169Z,102077.91
2022-12-25T14:04:24.819Z,102073.78
2022-12-25T14:07:30.589Z,102074.38
2022-12-25T14:10:39.854Z,102074.59
2022-12-25T14:13:47.649Z,102076.00
2022-12-25T14:16:56.667Z,102076.38
2022-12-25T14:20:07.858Z,102083.78
2022-12-25T14:23:16.489Z,102083.16
2022-12-25T14:26:28.561Z,102085.63
2022-12-25T14:29:45.608Z,102074.94
2022-12-25T14:32:54.379Z,102082.13
2022-12-25T14:35:59.608Z,102085.00
2022-12-25T14:39:07.590Z,102088.06
2022-12-25T14:42:24.679Z,102081.28
2022-12-25T14:45:36.353Z,102086.59
2022-12-25T14:48:41.496Z,102086.19
2022-12-25T14:51:46.873Z,102089.25
2022-12-25T14:55:07.462Z,102090.72
2022-12-25T14:58:22.027Z,102095.63
2022-12-25T15:01:41.932Z,102090.28
2022-12-25T15:04:47.473Z,102086.38
2022-12-25T15:08:23.256Z,102091.69
2022-12-25T15:11:29.275Z,102092.91
2022-12-25T15:14:38.621Z,102104.81
2022-12-25T15:17:43.774Z,102103.16
2022-12-25T15:20:52.804Z,102104.38
2022-12-25T15:24:00.174Z,102113.81
2022-12-25T15:27:12.849Z,102121.41
2022-12-25T15:30:18.963Z,102112.38
2022-12-25T15:33:24.102Z,102123.84
2022-12-25T15:36:29.313Z,102126.50
2022-12-25T15:39:35.046Z,102118.72
2022-12-25T15:42:41.558Z,102116.47
2022-12-25T15:45:46.952Z,102117.84
2022-12-25T15:48:51.851Z,102121.75
2022-12-25T15:51:57.016Z,102119.09
2022-12-25T15:55:02.052Z,102110.25
2022-12-25T15:58:11.329Z,102104.69
2022-12-25T16:01:19.212Z,102105.69
2022-12-25T16:04:26.793Z,102106.50
2022-12-25T16:07:33.783Z,102116.75
2022-12-25T16:10:40.500Z,102112.44
2022-12-25T16:13:45.982Z,102120.59
2022-12-25T16:16:51.398Z,102116.91
2022-12-25T16:19:56.816Z,102115.66
2022-12-25T16:23:01.743Z,102111.97
2022-12-25T16:26:06.952Z,102116.69
2022-12-25T16:29:12.111Z,102126.72
2022-12-25T16:32:18.598Z,102122.59
2022-12-25T16:35:23.896Z,102125.09
2022-12-25T16:38:29.286Z,102130.84
2022-12-25T16:41:34.669Z,102129.00
2022-12-25T16:44:39.825Z,102125.31
2022-12-25T16:47:44.884Z,102123.66
2022-12-25T16:50:50.048Z,102136.19
2022-12-25T16:53:55.901Z,102127.75
2022-12-25T16:57:01.379Z,102131.22
2022-12-25T17:00:07.400Z,102128.56
2022-12-25T17:03:13.033Z,102127.13
2022-12-25T17:06:28.616Z,102131.00
2022-12-25T17:09:37.519Z,102132.41
2022-12-25T17:12:45.931Z,102132.47
2022-12-25T17:15:51.438Z,102126.50
2022-12-25T17:19:02.666Z,102126.50
2022-12-25T17:22:08.286Z,102130.19
2022-12-25T17:25:13.667Z,102137.75
2022-12-25T17:28:18.740Z,102141.59
2022-12-25T17:31:24.750Z,102146.75
2022-12-25T17:34:30.192Z,102138.53
2022-12-25T17:37:37.626Z,102142.63
2022-12-25T17:40:44.439Z,102149.81
2022-12-25T17:43:49.883Z,102155.72
2022-12-25T17:46:55.019Z,102151.00
2022-12-25T17:50:00.038Z,102149.16
2022-12-25T17:53:05.509Z,102144.22
2022-12-25T17:56:11.220Z,102137.50
2022-12-25T17:59:18.762Z,102143.97
2022-12-25T18:02:24.625Z,102158.75
2022-12-25T18:05:30.341Z,102151.13
2022-12-25T18:08:39.508Z,102151.47
2022-12-25T18:11:45.581Z,102160.53
2022-12-25T18:14:50.818Z,102156.47
2022-12-25T18:17:56.069Z,102161.03
2022-12-25T18:21:02.390Z,102160.19
2022-12-25T18:24:08.668Z,102161.44
2022-12-25T18:27:14.080Z,102158.94
2022-12-25T18:30:20.101Z,102161.78
2022-12-25T18:33:25.658Z,102168.41
2022-12-25T18:36:31.098Z,102173.91
2022-12-25T18:39:36.598Z,102159.97
2022-12-25T18:42:43.642Z,102167.13
2022-12-25T18:45:57.826Z,102167.13
2022-12-25T18:49:03.467Z,102165.91
2022-12-25T18:52:48.459Z,102167.78
2022-12-25T18:55:33.938Z,102167.13
2022-12-25T18:58:39.626Z,102166.13
2022-12-25T19:01:44.931Z,102166.31
2022-12-25T19:04:50.518Z,102168.78
2022-12-25T19:07:55.949Z,102154.19
2022-12-25T19:11:01.343Z,102161.78
2022-12-25T19:14:06.822Z,102160.53
2022-12-25T19:17:12.383Z,102167.91
2022-12-25T19:20:18.022Z,102168.72
2022-12-25T19:23:23.261Z,102163.34
2022-12-25T19:26:28.585Z,102158.66
2022-12-25T19:29:34.560Z,102153.78
2022-12-25T19:32:39.833Z,102153.50
2022-12-25T19:35:45.082Z,102157.38
2022-12-25T19:38:50.990Z,102162.13
2022-12-25T19:41:56.011Z,102161.69
2022-12-25T19:45:01.187Z,102158.41
2022-12-25T19:48:06.592Z,102160.41
2022-12-25T19:51:21.011Z,102155.47
2022-12-25T19:54:26.295Z,102157.97
2022-12-25T19:57:31.369Z,102164.09
2022-12-25T20:00:36.556Z,102159.72
2022-12-25T20:03:46.462Z,102159.78
2022-12-25T20:06:52.190Z,102165.25
2022-12-25T20:09:57.559Z,102157.06
2022-12-25T20:13:02.881Z,102166.91
2022-12-25T20:16:10.570Z,102165.25
2022-12-25T20:19:15.973Z,102171.22
2022-12-25T20:22:21.237Z,102179.13
2022-12-25T20:25:26.426Z,102180.22
2022-12-25T20:28:34.060Z,102174.88
2022-12-25T20:31:39.400Z,102178.13
2022-12-25T20:34:44.854Z,102197.22
2022-12-25T20:37:50.341Z,102195.50
2022-12-25T20:44:31.110Z,102198.63
2022-12-25T20:47:36.441Z,102197.16
2022-12-25T20:50:41.537Z,102197.38
2022-12-25T20:53:48.050Z,102192.28
2022-12-25T20:56:53.064Z,102196.59
2022-12-25T20:59:58.199Z,102198.41
2022-12-25T21:03:03.688Z,102197.59
2022-12-25T21:06:11.682Z,102201.13
2022-12-25T21:09:16.848Z,102203.00
2022-12-25T21:12:22.077Z,102211.34
2022-12-25T21:15:27.275Z,102213.56
2022-12-25T21:18:32.618Z,102212.75
2022-12-25T21:21:42.955Z,102214.75
2022-12-25T21:24:52.189Z,102215.22
2022-12-25T21:27:57.379Z,102208.69
2022-12-25T21:31:04.286Z,102219.72
2022-12-25T21:34:09.562Z,102216.41
2022-12-25T21:37:14.682Z,102217.44
2022-12-25T21:40:20.008Z,102215.97
2022-12-25T21:43:25.424Z,102212.41
2022-12-25T21:46:31.003Z,102212.88
2022-12-25T21:49:54.795Z,102214.94
2022-12-25T21:53:00.020Z,102210.63
2022-12-25T21:56:05.983Z,102212.66
2022-12-25T21:59:17.914Z,102209.44
2022-12-25T22:02:23.232Z,102211.66
2022-12-25T22:05:47.369Z,102222.50
2022-12-25T22:08:52.752Z,102217.44
2022-12-25T22:12:16.834Z,102221.50
2022-12-25T22:15:21.943Z,102212.50
2022-12-25T22:18:45.542Z,102210.63
2022-12-25T22:21:51.725Z,102215.31
2022-12-25T22:24:59.773Z,102220.84
2022-12-25T22:28:05.002Z,102221.66
2022-12-25T22:31:10.337Z,102218.00
2022-12-25T22:34:16.381Z,102221.09
2022-12-25T22:37:23.361Z,102221.28
2022-12-25T22:40:28.710Z,102226.59
2022-12-25T22:44:14.501Z,102231.94
2022-12-25T22:47:00.042Z,102228.00
2022-12-25T22:50:06.304Z,102233.59
2022-12-25T22:53:11.560Z,102230.28
2022-12-25T22:56:17.020Z,102228.91
2022-12-25T22:59:23.337Z,102222.19
2022-12-25T23:02:30.451Z,102225.81
2022-12-25T23:05:36.552Z,102226.25
2022-12-25T23:08:41.778Z,102225.97
2022-12-25T23:11:46.852Z,102224.16
2022-12-25T23:14:52.075Z,102224.72
2022-12-25T23:18:16.362Z,102223.69
2022-12-25T23:21:39.630Z,102233.53
2022-12-25T23:25:03.536Z,102223.69
2022-12-25T23:28:09.131Z,102228.56
2022-12-25T23:31:17.880Z,102233.84
2022-12-25T23:34:23.794Z,102232.53
2022-12-25T23:37:29.484Z,102226.56
2022-12-25T23:40:36.570Z,102243.09
2022-12-25T23:43:41.980Z,102233.63
2022-12-25T23:46:52.728Z,102235.09
2022-12-25T23:49:59.331Z,102244.53
2022-12-25T23:53:04.873Z,102232.63
2022-12-25T23:56:10.706Z,102235.09
2022-12-25T23:59:16.157Z,102239.41
